createdAt,value
2023-01-18T00:01:19.483Z,11.23
2023-01-18T00:03:38.060Z,9.90
2023-01-18T00:05:55.164Z,9.88
2023-01-18T00:08:12.151Z,11.82
2023-01-18T00:10:29.212Z,8.45
2023-01-18T00:12:49.653Z,10.30
2023-01-18T00:15:06.873Z,9.93
2023-01-18T00:17:23.889Z,9.85
2023-01-18T00:19:44.953Z,10.70
2023-01-18T00:22:02.067Z,11.90
2023-01-18T00:24:19.223Z,10.77
2023-01-18T00:26:36.208Z,10.73
2023-01-18T00:28:53.119Z,10.50
2023-01-18T00:31:10.507Z,10.73
2023-01-18T00:33:27.804Z,11.82
2023-01-18T00:35:44.837Z,10.68
2023-01-18T00:38:02.085Z,11.98
2023-01-18T00:40:20.206Z,9.77
2023-01-18T00:42:37.586Z,10.35
2023-01-18T00:44:54.815Z,11.98
2023-01-18T00:47:12.789Z,11.40
2023-01-18T00:49:29.702Z,10.75
2023-01-18T00:51:46.998Z,10.45
2023-01-18T00:54:04.047Z,12.07
2023-01-18T00:56:21.007Z,10.77
2023-01-18T00:58:38.349Z,11.57
2023-01-18T01:00:55.505Z,9.23
2023-01-18T01:03:12.528Z,10.63
2023-01-18T01:05:29.607Z,11.18
2023-01-18T01:07:46.584Z,9.88
2023-01-18T01:10:03.507Z,13.48
2023-01-18T01:12:20.706Z,10.93
2023-01-18T01:14:37.588Z,11.85
2023-01-18T01:16:55.698Z,10.30
2023-01-18T01:19:12.778Z,12.27
2023-01-18T01:21:29.836Z,10.73
2023-01-18T01:23:46.700Z,10.60
2023-01-18T01:26:03.805Z,14.02
2023-01-18T01:28:20.944Z,11.00
2023-01-18T01:30:37.807Z,10.98
2023-01-18T01:32:55.480Z,12.20
2023-01-18T01:35:12.932Z,10.85
2023-01-18T01:37:29.832Z,11.50
2023-01-18T01:39:46.846Z,12.02
2023-01-18T01:42:03.759Z,10.75
2023-01-18T01:44:21.153Z,10.80
2023-01-18T01:46:38.168Z,10.23
2023-01-18T01:48:55.245Z,9.77
2023-01-18T01:51:12.303Z,11.50
2023-01-18T01:53:29.338Z,9.00
2023-01-18T01:55:46.630Z,12.07
2023-01-18T01:58:03.786Z,11.35
2023-01-18T02:00:22.101Z,15.30
2023-01-18T02:02:39.464Z,10.20
2023-01-18T02:04:56.493Z,12.13
2023-01-18T02:07:13.535Z,11.50
2023-01-18T02:09:30.798Z,9.13
2023-01-18T02:11:47.888Z,11.65
2023-01-18T02:14:04.907Z,11.70
2023-01-18T02:16:23.165Z,10.18
2023-01-18T02:18:40.096Z,9.35
2023-01-18T02:20:57.427Z,11.30
2023-01-18T02:23:14.435Z,12.20
2023-01-18T02:25:31.472Z,9.25
2023-01-18T02:27:51.838Z,10.00
2023-01-18T02:30:08.831Z,11.52
2023-01-18T02:32:25.804Z,9.90
2023-01-18T02:34:43.021Z,9.88
2023-01-18T02:37:01.371Z,9.07
2023-01-18T02:39:18.728Z,7.45
2023-01-18T02:41:36.668Z,9.90
2023-01-18T02:43:53.705Z,11.27
2023-01-18T02:46:11.776Z,10.77
2023-01-18T02:48:28.871Z,13.52
2023-01-18T02:50:46.754Z,8.98
2023-01-18T02:53:04.771Z,9.27
2023-01-18T02:55:22.074Z,10.63
2023-01-18T02:57:39.313Z,11.57
2023-01-18T02:59:56.586Z,9.98
2023-01-18T03:02:13.883Z,10.77
2023-01-18T03:04:31.096Z,10.55
2023-01-18T03:06:48.025Z,9.90
2023-01-18T03:09:04.934Z,10.13
2023-01-18T03:11:22.000Z,10.23
2023-01-18T03:13:39.062Z,10.07
2023-01-18T03:15:56.426Z,8.73
2023-01-18T03:18:13.711Z,10.20
2023-01-18T03:20:31.673Z,10.05
2023-01-18T03:22:48.744Z,11.77
2023-01-18T03:25:05.875Z,11.13
2023-01-18T03:27:22.922Z,11.85
2023-01-18T03:29:40.229Z,9.50
2023-01-18T03:31:57.235Z,9.60
2023-01-18T03:34:16.898Z,10.30
2023-01-18T03:36:34.111Z,9.63
2023-01-18T03:38:51.346Z,10.07
2023-01-18T03:41:08.315Z,10.85
2023-01-18T03:43:25.387Z,9.32
2023-01-18T03:45:42.662Z,9.90
2023-01-18T03:47:59.924Z,9.20
2023-01-18T03:50:16.865Z,9.95
2023-01-18T03:52:34.218Z,8.15
2023-01-18T03:54:51.487Z,9.70
2023-01-18T03:57:08.728Z,9.63
2023-01-18T03:59:25.693Z,6.97
2023-01-18T04:01:43.069Z,8.52
2023-01-18T04:04:01.056Z,8.65
2023-01-18T04:06:18.138Z,9.52
2023-01-18T04:08:35.452Z,11.15
2023-01-18T04:10:52.703Z,9.93
2023-01-18T04:13:09.683Z,9.68
2023-01-18T04:15:26.736Z,8.40
2023-01-18T04:17:44.626Z,9.23
2023-01-18T04:20:01.870Z,8.65
2023-01-18T04:22:20.093Z,10.63
2023-01-18T04:24:37.400Z,10.43
2023-01-18T04:26:54.625Z,9.70
2023-01-18T04:29:11.867Z,9.88
2023-01-18T04:31:29.075Z,9.07
2023-01-18T04:33:46.054Z,8.63
2023-01-18T04:36:03.279Z,9.27
2023-01-18T04:38:20.607Z,8.93
2023-01-18T04:40:37.661Z,9.00
2023-01-18T04:42:54.558Z,9.48
2023-01-18T04:45:11.777Z,8.70
2023-01-18T04:47:28.709Z,10.68
2023-01-18T04:49:46.897Z,9.35
2023-01-18T04:52:03.882Z,7.97
2023-01-18T04:54:21.853Z,8.75
2023-01-18T04:56:39.147Z,10.57
2023-01-18T04:58:56.120Z,11.38
2023-01-18T05:01:13.161Z,12.60
2023-01-18T05:03:31.218Z,11.60
2023-01-18T05:05:48.264Z,9.00
2023-01-18T05:08:05.474Z,9.70
2023-01-18T05:10:22.630Z,9.18
2023-01-18T05:12:40.638Z,11.98
2023-01-18T05:14:57.881Z,10.38
2023-01-18T05:17:15.123Z,11.73
2023-01-18T05:19:32.350Z,11.50
2023-01-18T05:21:49.575Z,11.43
2023-01-18T05:24:06.682Z,10.52
2023-01-18T05:26:23.716Z,8.57
2023-01-18T05:28:40.647Z,10.93
2023-01-18T05:30:57.885Z,10.48
2023-01-18T05:33:15.956Z,11.15
2023-01-18T05:35:33.190Z,12.68
2023-01-18T05:37:50.118Z,9.93
2023-01-18T05:40:07.175Z,10.73
2023-01-18T05:42:25.499Z,9.88
2023-01-18T05:44:42.542Z,10.02
2023-01-18T05:47:00.544Z,11.88
2023-01-18T05:49:17.518Z,8.93
2023-01-18T05:51:35.618Z,11.20
2023-01-18T05:53:52.649Z,7.50
2023-01-18T05:56:09.670Z,11.55
2023-01-18T05:58:26.871Z,10.00
2023-01-18T06:00:44.171Z,11.98
2023-01-18T06:03:01.708Z,11.27
2023-01-18T06:05:18.787Z,12.95
2023-01-18T06:07:36.786Z,10.55
2023-01-18T06:09:54.071Z,11.35
2023-01-18T06:12:11.285Z,13.82
2023-01-18T06:14:28.226Z,10.77
2023-01-18T06:16:46.246Z,10.05
2023-01-18T06:19:03.488Z,11.75
2023-01-18T06:21:20.433Z,10.00
2023-01-18T06:23:37.751Z,11.27
2023-01-18T06:25:54.737Z,11.60
2023-01-18T06:28:12.805Z,11.98
2023-01-18T06:30:30.816Z,12.27
2023-01-18T06:32:47.884Z,11.60
2023-01-18T06:35:05.148Z,11.55
2023-01-18T06:37:22.116Z,12.43
2023-01-18T06:39:39.023Z,10.45
2023-01-18T06:41:56.328Z,12.27
2023-01-18T06:44:13.255Z,15.82
2023-01-18T06:46:30.573Z,12.38
2023-01-18T06:48:47.830Z,13.57
2023-01-18T06:51:05.817Z,13.07
2023-01-18T06:53:22.807Z,13.93
2023-01-18T06:55:39.856Z,14.43
2023-01-18T06:57:57.071Z,15.40
2023-01-18T07:00:14.314Z,14.13
2023-01-18T07:02:32.597Z,11.90
2023-01-18T07:04:50.583Z,14.50
2023-01-18T07:07:07.612Z,13.60
2023-01-18T07:09:24.647Z,12.65
2023-01-18T07:11:41.603Z,14.73
2023-01-18T07:13:58.719Z,16.67
2023-01-18T07:16:15.986Z,13.32
2023-01-18T07:18:32.988Z,13.40
2023-01-18T07:20:49.997Z,14.13
2023-01-18T07:23:07.045Z,12.77
2023-01-18T07:25:23.869Z,14.43
2023-01-18T07:27:40.916Z,13.63
2023-01-18T07:29:57.943Z,15.82
2023-01-18T07:32:15.020Z,12.85
2023-01-18T07:34:31.927Z,13.23
2023-01-18T07:36:48.982Z,15.43
2023-01-18T07:39:05.950Z,13.00
2023-01-18T07:41:24.259Z,20.02
2023-01-18T07:43:41.224Z,20.70
2023-01-18T07:45:58.311Z,18.27
2023-01-18T07:48:15.341Z,15.98
2023-01-18T07:50:32.782Z,16.48
2023-01-18T07:52:49.847Z,12.68
2023-01-18T07:55:07.075Z,11.38
2023-01-18T07:57:24.164Z,11.70
2023-01-18T07:59:41.230Z,16.75
2023-01-18T08:01:58.269Z,14.93
2023-01-18T08:04:16.270Z,17.60
2023-01-18T08:06:33.255Z,19.42
2023-01-18T08:08:50.474Z,15.10
2023-01-18T08:11:07.461Z,16.73
2023-01-18T08:13:24.493Z,24.55
2023-01-18T08:15:41.567Z,20.63
2023-01-18T08:17:58.784Z,16.55
2023-01-18T08:20:15.882Z,19.35
2023-01-18T08:22:33.155Z,16.60
2023-01-18T08:24:50.344Z,16.55
2023-01-18T08:27:07.629Z,18.40
2023-01-18T08:29:24.533Z,18.73
2023-01-18T08:31:41.623Z,21.30
2023-01-18T08:33:58.542Z,34.38
2023-01-18T08:36:15.577Z,26.23
2023-01-18T08:38:32.907Z,20.33
2023-01-18T08:40:49.985Z,19.23
2023-01-18T08:43:08.273Z,22.52
2023-01-18T08:45:25.611Z,18.90
2023-01-18T08:47:42.597Z,24.60
2023-01-18T08:49:59.832Z,22.30
2023-01-18T08:52:17.864Z,18.75
2023-01-18T08:54:35.159Z,19.95
2023-01-18T08:56:52.229Z,20.40
2023-01-18T08:59:09.495Z,23.80
2023-01-18T09:01:27.896Z,15.80
2023-01-18T09:03:44.972Z,20.27
2023-01-18T09:06:02.175Z,17.63
2023-01-18T09:08:19.449Z,18.23
2023-01-18T09:10:36.815Z,16.98
2023-01-18T09:12:53.914Z,14.45
2023-01-18T09:15:10.925Z,16.25
2023-01-18T09:17:28.210Z,16.98
2023-01-18T09:19:46.231Z,16.48
2023-01-18T09:22:03.254Z,18.52
2023-01-18T09:24:21.346Z,16.05
2023-01-18T09:26:38.351Z,14.05
2023-01-18T09:28:58.531Z,15.68
2023-01-18T09:31:15.752Z,17.00
2023-01-18T09:33:37.977Z,16.38
2023-01-18T09:35:55.324Z,15.00
2023-01-18T09:38:12.578Z,17.35
2023-01-18T09:40:29.721Z,14.82
2023-01-18T09:42:46.998Z,14.60
2023-01-18T09:45:04.644Z,15.55
2023-01-18T09:47:21.762Z,15.07
2023-01-18T09:49:40.004Z,13.65
2023-01-18T09:51:57.095Z,13.90
2023-01-18T09:54:15.042Z,14.68
2023-01-18T09:56:32.351Z,17.10
2023-01-18T09:58:49.666Z,17.27
2023-01-18T10:01:06.818Z,16.50
2023-01-18T10:03:24.154Z,18.00
2023-01-18T10:05:41.525Z,19.63
2023-01-18T10:07:59.949Z,20.92
2023-01-18T10:10:17.107Z,17.75
2023-01-18T10:12:34.112Z,22.67
2023-01-18T10:14:51.394Z,16.45
2023-01-18T10:17:08.772Z,18.63
2023-01-18T10:19:25.808Z,20.42
2023-01-18T10:21:42.851Z,23.42
2023-01-18T10:23:59.890Z,25.90
2023-01-18T10:26:17.204Z,20.80
2023-01-18T10:28:34.200Z,29.40
2023-01-18T10:30:51.197Z,21.38
2023-01-18T10:33:08.396Z,23.70
2023-01-18T10:35:25.717Z,21.63
2023-01-18T10:37:43.741Z,21.58
2023-01-18T10:40:01.789Z,18.20
2023-01-18T10:42:18.997Z,22.65
2023-01-18T10:44:36.204Z,22.23
2023-01-18T10:46:53.344Z,25.20
2023-01-18T10:49:11.368Z,21.95
2023-01-18T10:51:28.737Z,18.02
2023-01-18T10:53:46.003Z,23.67
2023-01-18T10:56:02.971Z,21.67
2023-01-18T10:58:20.282Z,33.42
2023-01-18T11:00:37.419Z,30.85
2023-01-18T11:02:54.843Z,29.77
2023-01-18T11:05:12.902Z,32.20
2023-01-18T11:07:29.992Z,37.92
2023-01-18T11:09:48.337Z,36.80
2023-01-18T11:12:05.689Z,25.75
2023-01-18T11:14:23.723Z,31.85
2023-01-18T11:16:41.098Z,23.50
2023-01-18T11:18:59.147Z,22.90
2023-01-18T11:21:16.408Z,26.90
2023-01-18T11:23:33.295Z,24.90
2023-01-18T11:25:50.283Z,24.38
2023-01-18T11:28:09.137Z,22.38
2023-01-18T11:30:26.088Z,137.05
2023-01-18T11:32:43.133Z,56.28
2023-01-18T11:35:00.299Z,39.38
2023-01-18T11:37:17.459Z,46.38
2023-01-18T11:39:34.680Z,76.15
2023-01-18T11:41:52.029Z,59.70
2023-01-18T11:44:09.353Z,75.03
2023-01-18T11:46:27.472Z,28.98
2023-01-18T11:48:44.584Z,23.42
2023-01-18T11:51:02.661Z,33.03
2023-01-18T11:53:19.712Z,27.30
2023-01-18T11:55:36.650Z,25.38
2023-01-18T11:57:53.832Z,26.15
2023-01-18T12:00:11.217Z,16.88
2023-01-18T12:02:28.224Z,13.70
2023-01-18T12:04:45.219Z,10.90
2023-01-18T12:07:03.382Z,16.40
2023-01-18T12:09:20.227Z,16.05
2023-01-18T12:11:37.652Z,17.50
2023-01-18T12:13:54.998Z,20.08
2023-01-18T12:16:12.382Z,15.23
2023-01-18T12:18:29.459Z,14.50
2023-01-18T12:20:46.509Z,12.70
2023-01-18T12:23:03.455Z,10.48
2023-01-18T12:25:20.544Z,14.88
2023-01-18T12:27:37.805Z,15.20
2023-01-18T12:29:54.736Z,16.40
2023-01-18T12:32:11.774Z,18.77
2023-01-18T12:34:28.785Z,9.50
2023-01-18T12:36:45.721Z,11.00
2023-01-18T12:39:02.814Z,13.65
2023-01-18T12:41:19.745Z,12.80
2023-01-18T12:43:36.864Z,16.25
2023-01-18T12:45:54.197Z,22.63
2023-01-18T12:48:11.208Z,10.50
2023-01-18T12:50:28.397Z,16.95
2023-01-18T12:52:45.793Z,15.40
2023-01-18T12:55:03.111Z,9.52
2023-01-18T12:57:20.141Z,12.90
2023-01-18T12:59:37.433Z,10.18
2023-01-18T13:01:55.101Z,12.70
2023-01-18T13:04:12.466Z,8.85
2023-01-18T13:06:30.850Z,10.00
2023-01-18T13:08:47.889Z,14.35
2023-01-18T13:11:05.284Z,18.02
2023-01-18T13:13:23.612Z,8.43
2023-01-18T13:15:41.140Z,7.15
2023-01-18T13:18:00.123Z,14.30
2023-01-18T13:20:18.278Z,8.52
2023-01-18T13:22:35.588Z,8.10
2023-01-18T13:24:52.537Z,8.43
2023-01-18T13:27:10.492Z,6.38
2023-01-18T13:29:27.768Z,7.15
2023-01-18T13:31:45.067Z,6.32
2023-01-18T13:34:03.340Z,6.00
2023-01-18T13:36:21.613Z,13.13
2023-01-18T13:38:41.840Z,12.10
2023-01-18T13:40:59.349Z,5.88
2023-01-18T13:43:16.645Z,10.70
2023-01-18T13:45:34.866Z,7.63
2023-01-18T13:47:52.158Z,7.90
2023-01-18T13:50:10.214Z,12.50
2023-01-18T13:52:27.526Z,10.57
2023-01-18T13:54:46.735Z,11.50
2023-01-18T13:57:04.262Z,8.07
2023-01-18T13:59:21.542Z,6.25
2023-01-18T14:01:39.880Z,14.30
2023-01-18T14:03:56.977Z,10.93
2023-01-18T14:06:14.062Z,6.10
2023-01-18T14:08:31.359Z,9.90
2023-01-18T14:10:48.593Z,9.48
2023-01-18T14:13:05.868Z,14.90
2023-01-18T14:15:24.216Z,15.75
2023-01-18T14:17:53.451Z,7.28
2023-01-18T14:20:15.395Z,17.83
2023-01-18T14:22:32.357Z,24.30
2023-01-18T14:24:50.791Z,11.82
2023-01-18T14:27:09.039Z,9.52
2023-01-18T14:29:26.438Z,12.77
2023-01-18T14:31:44.291Z,10.13
2023-01-18T14:34:01.404Z,11.38
2023-01-18T14:36:18.850Z,16.88
2023-01-18T14:38:35.872Z,11.80
2023-01-18T14:40:54.124Z,8.18
2023-01-18T14:43:11.492Z,12.40
2023-01-18T14:45:28.486Z,10.93
2023-01-18T14:47:45.593Z,8.52
2023-01-18T14:50:02.585Z,7.50
2023-01-18T14:52:19.887Z,8.23
2023-01-18T14:54:37.234Z,16.27
2023-01-18T14:56:55.492Z,13.50
2023-01-18T14:59:12.828Z,14.73
2023-01-18T15:01:30.376Z,14.63
2023-01-18T15:03:47.595Z,17.95
2023-01-18T15:06:04.896Z,17.13
2023-01-18T15:08:22.001Z,19.92
2023-01-18T15:10:39.204Z,17.77
2023-01-18T15:12:56.326Z,13.63
2023-01-18T15:15:13.605Z,12.88
2023-01-18T15:17:30.588Z,10.27
2023-01-18T15:19:48.519Z,8.35
2023-01-18T15:22:07.595Z,9.48
2023-01-18T15:24:25.537Z,5.03
2023-01-18T15:26:42.837Z,6.47
2023-01-18T15:29:00.202Z,8.77
2023-01-18T15:31:18.195Z,6.80
2023-01-18T15:33:36.178Z,7.38
2023-01-18T15:35:54.350Z,11.05
2023-01-18T15:38:11.708Z,6.80
2023-01-18T15:40:28.664Z,10.57
2023-01-18T15:42:45.640Z,9.32
2023-01-18T15:45:03.652Z,9.50
2023-01-18T15:47:20.973Z,7.70
2023-01-18T15:49:38.205Z,9.82
2023-01-18T15:51:55.163Z,7.20
2023-01-18T15:54:12.198Z,7.13
2023-01-18T15:56:29.616Z,6.07
2023-01-18T15:58:46.723Z,6.60
2023-01-18T16:01:03.759Z,5.43
2023-01-18T16:03:20.835Z,8.30
2023-01-18T16:05:38.792Z,6.45
2023-01-18T16:08:09.547Z,6.43
2023-01-18T16:10:32.561Z,11.10
2023-01-18T16:12:49.603Z,11.50
2023-01-18T16:15:06.685Z,12.82
2023-01-18T16:17:23.684Z,10.32
2023-01-18T16:19:41.016Z,9.60
2023-01-18T16:21:58.656Z,9.00
2023-01-18T16:24:16.756Z,8.65
2023-01-18T16:26:33.674Z,9.57
2023-01-18T16:28:51.110Z,7.65
2023-01-18T16:31:08.278Z,7.90
2023-01-18T16:33:26.463Z,8.27
2023-01-18T16:35:43.739Z,8.55
2023-01-18T16:38:01.178Z,8.00
2023-01-18T16:40:18.860Z,8.15
2023-01-18T16:42:38.451Z,8.57
2023-01-18T16:44:55.686Z,9.63
2023-01-18T16:47:12.750Z,7.75
2023-01-18T16:49:30.128Z,9.25
2023-01-18T16:51:47.520Z,10.88
2023-01-18T16:54:05.474Z,12.60
2023-01-18T16:56:23.515Z,10.68
2023-01-18T16:58:40.598Z,10.90
2023-01-18T17:00:57.736Z,11.32
2023-01-18T17:03:14.742Z,10.57
2023-01-18T17:05:31.863Z,13.57
2023-01-18T17:07:49.120Z,12.60
2023-01-18T17:10:07.440Z,14.13
2023-01-18T17:12:24.831Z,11.57
2023-01-18T17:14:42.160Z,10.18
2023-01-18T17:17:00.153Z,13.13
2023-01-18T17:19:17.519Z,15.27
2023-01-18T17:21:34.606Z,16.30
2023-01-18T17:23:51.971Z,17.75
2023-01-18T17:26:09.125Z,17.75
2023-01-18T17:28:27.115Z,17.00
2023-01-18T17:30:44.657Z,14.90
2023-01-18T17:33:03.181Z,17.67
2023-01-18T17:35:20.575Z,14.95
2023-01-18T17:40:12.011Z,18.48
2023-01-18T17:42:32.284Z,16.38
2023-01-18T17:44:50.290Z,14.35
2023-01-18T17:47:09.527Z,16.02
2023-01-18T17:49:27.424Z,16.85
2023-01-18T17:51:45.474Z,17.88
2023-01-18T17:54:03.680Z,14.43
2023-01-18T17:56:23.813Z,17.58
2023-01-18T17:58:40.826Z,18.35
2023-01-18T18:00:57.856Z,15.18
2023-01-18T18:03:15.096Z,17.77
2023-01-18T18:05:33.519Z,17.27
2023-01-18T18:07:50.878Z,17.05
2023-01-18T18:10:08.246Z,16.30
2023-01-18T18:12:25.301Z,15.77
2023-01-18T18:14:42.695Z,16.05
2023-01-18T18:17:00.114Z,15.65
2023-01-18T18:19:17.445Z,13.07
2023-01-18T18:21:34.645Z,10.68
2023-01-18T18:23:52.647Z,12.77
2023-01-18T18:26:09.812Z,11.88
2023-01-18T18:28:28.191Z,11.02
2023-01-18T18:30:45.160Z,12.55
2023-01-18T18:33:02.767Z,14.70
2023-01-18T18:35:26.051Z,10.93
2023-01-18T18:37:43.757Z,10.32
2023-01-18T18:40:00.684Z,16.63
2023-01-18T18:42:18.201Z,12.63
2023-01-18T18:44:35.558Z,12.48
2023-01-18T18:46:52.508Z,12.55
2023-01-18T18:49:09.845Z,11.73
2023-01-18T18:51:26.917Z,11.00
2023-01-18T18:53:43.850Z,13.40
2023-01-18T18:56:01.221Z,13.20
2023-01-18T18:58:18.505Z,11.30
2023-01-18T19:00:35.899Z,12.00
2023-01-18T19:02:54.068Z,11.68
2023-01-18T19:05:12.501Z,13.48
2023-01-18T19:07:29.416Z,13.95
2023-01-18T19:09:46.858Z,14.45
2023-01-18T19:12:03.824Z,13.75
2023-01-18T19:14:21.164Z,14.70
2023-01-18T19:16:38.532Z,13.02
2023-01-18T19:18:57.147Z,12.35
2023-01-18T19:21:14.515Z,12.40
2023-01-18T19:23:34.271Z,14.45
2023-01-18T19:25:51.248Z,14.32
2023-01-18T19:28:08.463Z,14.77
2023-01-18T19:30:25.567Z,13.23
2023-01-18T19:32:42.972Z,17.13
2023-01-18T19:35:00.121Z,15.50
2023-01-18T19:37:17.479Z,15.52
2023-01-18T19:39:34.537Z,16.30
2023-01-18T19:41:51.801Z,12.13
2023-01-18T19:44:08.937Z,13.13
2023-01-18T19:46:27.932Z,15.18
2023-01-18T19:48:45.093Z,17.20
2023-01-18T19:51:10.223Z,14.95
2023-01-18T19:53:34.851Z,16.17
2023-01-18T19:55:59.662Z,14.35
2023-01-18T19:58:23.862Z,14.05
2023-01-18T20:00:40.916Z,15.93
2023-01-18T20:02:58.930Z,18.48
2023-01-18T20:05:17.445Z,17.02
2023-01-18T20:07:34.849Z,25.42
2023-01-18T20:09:51.981Z,25.17
2023-01-18T20:12:09.111Z,26.58
2023-01-18T20:14:40.404Z,19.23
2023-01-18T20:16:58.232Z,19.27
2023-01-18T20:19:16.301Z,18.77
2023-01-18T20:21:33.750Z,17.67
2023-01-18T20:23:51.170Z,16.83
2023-01-18T20:26:08.178Z,14.85
2023-01-18T20:28:25.384Z,15.07
2023-01-18T20:30:42.698Z,14.25
2023-01-18T20:32:59.906Z,15.55
2023-01-18T20:35:17.116Z,16.08
2023-01-18T20:37:34.478Z,16.85
2023-01-18T20:39:52.215Z,16.25
2023-01-18T20:42:09.266Z,15.52
2023-01-18T20:44:26.398Z,16.33
2023-01-18T20:46:44.567Z,16.45
2023-01-18T20:49:02.068Z,15.30
2023-01-18T20:51:19.237Z,18.42
2023-01-18T20:53:36.787Z,15.77
2023-01-18T20:55:54.197Z,14.57
2023-01-18T20:58:11.602Z,14.57
2023-01-18T21:00:29.966Z,15.80
2023-01-18T21:02:47.427Z,17.65
2023-01-18T21:05:06.855Z,15.07
2023-01-18T21:07:24.809Z,15.52
2023-01-18T21:09:42.250Z,19.15
2023-01-18T21:11:59.289Z,15.23
2023-01-18T21:14:16.271Z,13.95
2023-01-18T21:16:33.447Z,14.55
2023-01-18T21:18:50.450Z,17.83
2023-01-18T21:21:08.573Z,14.93
2023-01-18T21:23:26.025Z,17.42
2023-01-18T21:25:43.312Z,18.60
2023-01-18T21:28:01.535Z,14.20
2023-01-18T21:30:19.281Z,14.50
2023-01-18T21:32:37.242Z,12.63
2023-01-18T21:34:54.376Z,14.50
2023-01-18T21:37:11.358Z,15.75
2023-01-18T21:39:29.883Z,14.73
2023-01-18T21:41:47.127Z,14.50
2023-01-18T21:44:05.036Z,13.15
2023-01-18T21:46:22.165Z,12.20
2023-01-18T21:48:39.505Z,14.77
2023-01-18T21:50:56.631Z,13.65
2023-01-18T21:53:15.441Z,14.27
2023-01-18T21:55:32.795Z,14.45
2023-01-18T21:57:49.828Z,14.43
2023-01-18T22:00:06.904Z,15.50
2023-01-18T22:02:23.914Z,17.30
2023-01-18T22:04:42.063Z,21.15
2023-01-18T22:07:06.611Z,25.58
2023-01-18T22:09:23.985Z,27.95
2023-01-18T22:11:42.299Z,30.73
2023-01-18T22:13:59.371Z,26.50
2023-01-18T22:16:16.628Z,27.92
2023-01-18T22:18:34.034Z,29.75
2023-01-18T22:20:52.316Z,23.58
2023-01-18T22:23:09.273Z,27.30
2023-01-18T22:25:26.177Z,28.17
2023-01-18T22:27:43.547Z,21.60
2023-01-18T22:30:01.473Z,24.25
2023-01-18T22:32:19.269Z,23.40
2023-01-18T22:34:36.557Z,22.15
2023-01-18T22:36:53.604Z,21.50
2023-01-18T22:39:12.103Z,20.60
2023-01-18T22:41:29.850Z,18.98
2023-01-18T22:43:47.012Z,20.13
2023-01-18T22:46:04.252Z,20.95
2023-01-18T22:48:21.345Z,19.75
2023-01-18T22:50:38.417Z,19.33
2023-01-18T22:52:55.840Z,18.65
2023-01-18T22:55:14.073Z,21.15
2023-01-18T22:57:31.540Z,20.83
2023-01-18T22:59:48.654Z,22.35
2023-01-18T23:02:05.766Z,19.48
2023-01-18T23:04:23.400Z,21.98
2023-01-18T23:06:41.546Z,17.85
2023-01-18T23:08:58.693Z,18.27
2023-01-18T23:11:15.783Z,18.85
2023-01-18T23:13:34.101Z,19.95
2023-01-18T23:15:51.161Z,19.25
2023-01-18T23:18:09.236Z,17.63
2023-01-18T23:20:26.390Z,19.67
2023-01-18T23:22:43.798Z,19.55
2023-01-18T23:25:01.151Z,19.45
2023-01-18T23:27:19.815Z,16.23
2023-01-18T23:29:36.989Z,16.70
2023-01-18T23:31:57.338Z,19.60
2023-01-18T23:34:15.415Z,19.02
2023-01-18T23:36:32.619Z,17.15
2023-01-18T23:38:49.994Z,19.55
2023-01-18T23:41:08.344Z,15.45
2023-01-18T23:43:25.720Z,15.80
2023-01-18T23:45:43.246Z,17.38
2023-01-18T23:48:00.515Z,16.08
2023-01-18T23:50:17.837Z,16.73
2023-01-18T23:52:37.757Z,19.10
2023-01-18T23:54:54.859Z,17.95
2023-01-18T23:57:12.050Z,18.48
2023-01-18T23:59:29.489Z,16.73
